Terminal Aerodrome Forecast
Issued by NWS Wichita, KS

Home | Current Version | Previous Version | Text Only | Print | Product List | Glossary On
Versions: 1 2 3 4 5 6 7 8 9 10 11 12 13 14 15 16 17 18 19 20 21 22 23 24
098
FTUS43 KICT 211140
TAFICT
TAF
KICT 211140Z 2112/2212 14009KT P6SM VCTS SCT040CB
     FM211500 14009KT P6SM OVC013
     FM211800 14013KT P6SM OVC025
     FM212000 13013KT P6SM OVC035=

USA.gov is the U.S. government's official web portal to all federal, state and local government web resources and services.